createdAt,value
2022-10-14T00:01:23.041Z,19.50
2022-10-14T00:03:51.276Z,20.75
2022-10-14T00:06:24.701Z,20.15
2022-10-14T00:08:51.910Z,18.25
2022-10-14T00:11:26.272Z,20.30
2022-10-14T00:13:59.376Z,17.57
2022-10-14T00:16:34.711Z,20.65
2022-10-14T00:19:02.275Z,20.90
2022-10-14T00:21:30.154Z,22.50
2022-10-14T00:23:58.224Z,21.85
2022-10-14T00:26:31.093Z,21.90
2022-10-14T00:29:00.799Z,22.30
2022-10-14T00:31:32.564Z,22.13
2022-10-14T00:33:59.957Z,22.02
2022-10-14T00:36:27.198Z,23.98
2022-10-14T00:38:55.077Z,22.60
2022-10-14T00:41:32.501Z,21.65
2022-10-14T00:44:25.040Z,21.58
2022-10-14T00:46:52.265Z,24.13
2022-10-14T00:49:27.913Z,24.13
2022-10-14T00:52:11.654Z,23.67
2022-10-14T00:54:46.642Z,23.85
2022-10-14T00:57:14.560Z,23.25
2022-10-14T00:59:41.957Z,24.45
2022-10-14T01:02:09.446Z,20.90
2022-10-14T01:04:40.786Z,24.42
2022-10-14T01:07:28.221Z,25.45
2022-10-14T01:10:47.689Z,24.73
2022-10-14T01:13:33.321Z,25.45
2022-10-14T01:16:41.760Z,23.80
2022-10-14T01:20:00.954Z,23.98
2022-10-14T01:22:56.510Z,21.13
2022-10-14T01:25:35.343Z,23.13
2022-10-14T01:28:26.620Z,23.55
2022-10-14T01:31:03.499Z,23.52
2022-10-14T01:33:41.033Z,22.52
2022-10-14T01:36:31.432Z,20.75
2022-10-14T01:39:12.582Z,20.38
2022-10-14T01:41:46.694Z,18.60
2022-10-14T01:44:19.502Z,19.45
2022-10-14T01:46:53.031Z,17.98
2022-10-14T01:49:37.665Z,19.27
2022-10-14T01:52:22.804Z,17.77
2022-10-14T01:57:31.572Z,17.98
2022-10-14T02:02:27.225Z,18.48
2022-10-14T02:04:54.416Z,19.23
2022-10-14T02:07:41.531Z,20.33
2022-10-14T02:10:27.803Z,22.95
2022-10-14T02:13:29.928Z,21.33
2022-10-14T02:16:15.677Z,21.15
2022-10-14T02:18:56.465Z,20.48
2022-10-14T02:21:30.159Z,20.02
2022-10-14T02:24:12.795Z,23.42
2022-10-14T02:26:42.187Z,20.25
2022-10-14T02:29:09.336Z,18.92
2022-10-14T02:31:39.746Z,20.10
2022-10-14T02:34:12.536Z,22.48
2022-10-14T02:36:42.074Z,20.90
2022-10-14T02:39:14.327Z,22.35
2022-10-14T02:41:41.709Z,23.85
2022-10-14T02:44:09.276Z,21.50
2022-10-14T02:46:40.055Z,22.23
2022-10-14T02:49:09.420Z,22.48
2022-10-14T02:51:36.292Z,22.67
2022-10-14T02:54:03.286Z,25.00
2022-10-14T02:56:30.144Z,27.05
2022-10-14T02:59:00.683Z,26.27
2022-10-14T03:01:27.971Z,24.85
2022-10-14T03:03:54.858Z,24.35
2022-10-14T03:06:23.085Z,26.55
2022-10-14T03:08:50.237Z,24.40
2022-10-14T03:11:17.141Z,24.10
2022-10-14T03:13:44.583Z,23.77
2022-10-14T03:16:11.968Z,26.98
2022-10-14T03:18:43.194Z,25.50
2022-10-14T03:21:20.176Z,23.55
2022-10-14T03:23:47.137Z,26.98
2022-10-14T03:26:14.322Z,25.30
2022-10-14T03:28:44.281Z,23.40
2022-10-14T03:31:17.401Z,25.85
2022-10-14T03:34:04.235Z,27.60
2022-10-14T03:36:32.031Z,27.23
2022-10-14T03:38:59.016Z,25.13
2022-10-14T03:44:31.690Z,25.20
2022-10-14T03:47:21.755Z,26.38
2022-10-14T03:49:48.724Z,26.48
2022-10-14T03:52:24.426Z,27.25
2022-10-14T03:55:08.504Z,28.50
2022-10-14T03:57:35.885Z,25.27
2022-10-14T04:00:06.670Z,26.75
2022-10-14T04:02:42.940Z,24.73
2022-10-14T04:05:24.134Z,27.27
2022-10-14T04:07:51.721Z,25.77
2022-10-14T04:10:18.629Z,26.20
2022-10-14T04:12:51.499Z,25.85
2022-10-14T04:15:23.861Z,26.10
2022-10-14T04:18:14.043Z,26.48
2022-10-14T04:20:42.608Z,25.63
2022-10-14T04:23:10.488Z,23.10
2022-10-14T04:25:40.694Z,26.88
2022-10-14T04:28:07.893Z,26.00
2022-10-14T04:30:45.544Z,28.73
2022-10-14T04:33:18.133Z,25.90
2022-10-14T04:35:47.125Z,25.13
2022-10-14T04:38:21.388Z,25.87
2022-10-14T04:40:55.230Z,27.98
2022-10-14T04:43:22.671Z,24.77
2022-10-14T04:45:50.627Z,27.10
2022-10-14T04:48:23.945Z,26.50
2022-10-14T04:50:53.010Z,27.23
2022-10-14T04:53:45.166Z,26.55
2022-10-14T04:59:01.766Z,24.73
2022-10-14T05:01:48.129Z,27.77
2022-10-14T05:04:15.500Z,29.20
2022-10-14T05:06:44.750Z,28.70
2022-10-14T05:09:14.254Z,29.00
2022-10-14T05:11:41.557Z,30.13
2022-10-14T05:14:10.946Z,26.60
2022-10-14T05:16:39.234Z,29.30
2022-10-14T05:19:08.193Z,28.00
2022-10-14T05:21:39.598Z,25.75
2022-10-14T05:24:12.603Z,27.65
2022-10-14T05:26:40.837Z,29.25
2022-10-14T05:29:12.312Z,27.90
2022-10-14T05:31:40.438Z,31.85
2022-10-14T05:34:21.218Z,31.45
2022-10-14T05:36:48.260Z,26.63
2022-10-14T05:39:16.139Z,27.10
2022-10-14T05:41:43.506Z,28.33
2022-10-14T05:44:12.200Z,28.30
2022-10-14T05:46:39.842Z,26.52
2022-10-14T05:49:06.926Z,28.17
2022-10-14T05:51:37.646Z,24.95
2022-10-14T05:54:12.847Z,27.38
2022-10-14T05:56:42.202Z,27.58
2022-10-14T05:59:10.651Z,30.15
2022-10-14T06:01:38.372Z,31.83
2022-10-14T06:04:05.384Z,27.27
2022-10-14T06:06:32.922Z,27.33
2022-10-14T06:09:00.162Z,28.63
2022-10-14T06:11:27.073Z,27.95
2022-10-14T06:13:54.153Z,26.83
2022-10-14T06:16:21.161Z,28.20
2022-10-14T06:18:52.278Z,30.35
2022-10-14T06:21:22.109Z,30.70
2022-10-14T06:23:49.149Z,29.30
2022-10-14T06:26:15.984Z,27.52
2022-10-14T06:28:42.870Z,29.77
2022-10-14T06:31:09.995Z,29.98
2022-10-14T06:33:36.899Z,31.35
2022-10-14T06:36:07.139Z,29.05
2022-10-14T06:38:34.113Z,27.15
2022-10-14T06:41:01.286Z,26.42
2022-10-14T06:43:28.198Z,25.95
2022-10-14T06:45:58.399Z,29.42
2022-10-14T06:48:25.475Z,26.48
2022-10-14T06:50:53.195Z,26.65
2022-10-14T06:53:20.190Z,26.55
2022-10-14T06:56:22.224Z,28.08
2022-10-14T06:59:02.052Z,28.77
2022-10-14T07:01:32.164Z,28.75
2022-10-14T07:04:00.893Z,26.58
2022-10-14T07:06:27.771Z,27.13
2022-10-14T07:08:54.642Z,26.02
2022-10-14T07:11:21.438Z,25.88
2022-10-14T07:13:48.382Z,27.77
2022-10-14T07:16:15.405Z,27.30
2022-10-14T07:18:42.303Z,25.48
2022-10-14T07:21:09.173Z,27.10
2022-10-14T07:23:36.041Z,24.88
2022-10-14T07:26:03.838Z,27.05
2022-10-14T07:28:34.007Z,25.60
2022-10-14T07:31:05.469Z,25.83
2022-10-14T07:33:33.139Z,25.55
2022-10-14T07:36:10.608Z,25.45
2022-10-14T07:38:38.099Z,24.58
2022-10-14T07:48:27.149Z,27.15
2022-10-14T07:51:08.013Z,26.00
2022-10-14T07:53:37.261Z,26.88
2022-10-14T07:56:04.463Z,25.42
2022-10-14T07:58:32.119Z,25.65
2022-10-14T08:00:59.392Z,25.23
2022-10-14T08:03:26.735Z,26.48
2022-10-14T08:06:02.828Z,25.10
2022-10-14T08:08:30.002Z,27.25
2022-10-14T08:11:22.012Z,23.42
2022-10-14T08:14:02.747Z,25.30
2022-10-14T08:16:33.756Z,24.45
2022-10-14T08:19:13.802Z,25.70
2022-10-14T08:21:43.679Z,24.05
2022-10-14T08:24:11.950Z,25.85
2022-10-14T08:27:03.773Z,26.05
2022-10-14T08:29:36.555Z,24.48
2022-10-14T08:32:26.653Z,23.50
2022-10-14T08:35:34.382Z,23.17
2022-10-14T08:43:40.027Z,23.27
2022-10-14T08:47:26.560Z,23.35
2022-10-14T08:51:01.679Z,23.77
2022-10-14T08:53:45.992Z,22.80
2022-10-14T09:01:24.060Z,21.42
2022-10-14T09:04:15.787Z,22.33
2022-10-14T09:06:54.030Z,22.83
2022-10-14T09:10:09.522Z,22.77
2022-10-14T09:21:04.928Z,21.35
2022-10-14T09:35:33.262Z,20.00
2022-10-14T09:38:14.811Z,20.40
2022-10-14T09:40:57.804Z,21.95
2022-10-14T09:50:45.062Z,20.17
2022-10-14T09:53:25.349Z,20.05
2022-10-14T09:56:02.899Z,19.85
2022-10-14T09:58:53.866Z,20.75
2022-10-14T10:01:24.980Z,18.83
2022-10-14T10:03:55.002Z,20.02
2022-10-14T10:06:26.892Z,19.85
2022-10-14T10:08:54.392Z,18.35
2022-10-14T10:11:40.161Z,17.85
2022-10-14T10:14:34.059Z,19.65
2022-10-14T10:17:10.835Z,18.50
2022-10-14T10:19:52.759Z,18.65
2022-10-14T10:22:20.989Z,19.23
2022-10-14T10:24:59.146Z,17.60
2022-10-14T10:27:27.638Z,17.00
2022-10-14T10:29:59.031Z,17.55
2022-10-14T10:32:44.719Z,16.92
2022-10-14T10:35:25.180Z,15.52
2022-10-14T10:38:21.443Z,14.80
2022-10-14T10:41:25.841Z,15.55
2022-10-14T10:44:26.330Z,15.07
2022-10-14T10:47:41.901Z,14.95
2022-10-14T10:50:14.593Z,14.57
2022-10-14T10:53:02.547Z,13.20
2022-10-14T10:56:04.518Z,13.60
2022-10-14T10:58:56.539Z,14.05
2022-10-14T11:01:57.402Z,12.43
2022-10-14T11:04:49.144Z,12.50
2022-10-14T11:08:18.144Z,12.15
2022-10-14T11:19:40.947Z,11.70
2022-10-14T11:23:55.126Z,11.88
2022-10-14T11:49:18.257Z,11.10
2022-10-14T11:52:03.388Z,11.50
2022-10-14T11:58:16.490Z,11.32
2022-10-14T12:01:22.309Z,11.30
2022-10-14T12:39:37.833Z,6.72
2022-10-14T12:56:11.385Z,6.00
2022-10-14T12:59:05.826Z,6.35
2022-10-14T13:01:36.996Z,6.40
2022-10-14T13:04:19.922Z,6.13
2022-10-14T13:07:35.709Z,6.55
2022-10-14T13:10:45.993Z,7.45
2022-10-14T13:13:43.052Z,8.18
2022-10-14T13:16:25.718Z,8.60
2022-10-14T13:19:00.793Z,8.70
2022-10-14T13:21:43.501Z,9.15
2022-10-14T13:24:32.814Z,8.38
2022-10-14T13:27:36.732Z,8.07
2022-10-14T13:30:24.483Z,7.88
2022-10-14T13:33:07.474Z,7.63
2022-10-14T13:36:10.657Z,8.80
2022-10-14T13:38:45.361Z,8.82
2022-10-14T13:41:30.642Z,8.88
2022-10-14T13:44:01.182Z,9.02
2022-10-14T13:46:46.539Z,10.13
2022-10-14T13:49:36.659Z,11.30
2022-10-14T13:52:12.853Z,13.30
2022-10-14T13:54:39.730Z,15.20
2022-10-14T14:00:41.463Z,15.50
2022-10-14T14:03:26.836Z,16.80
2022-10-14T14:05:58.794Z,17.98
2022-10-14T14:09:10.298Z,16.25
2022-10-14T14:11:38.442Z,17.20
2022-10-14T14:14:22.950Z,17.17
2022-10-14T14:17:05.652Z,17.20
2022-10-14T14:19:45.712Z,18.33
2022-10-14T14:22:29.365Z,18.23
2022-10-14T14:25:35.714Z,18.30
2022-10-14T14:28:15.329Z,19.15
2022-10-14T14:30:56.352Z,17.77
2022-10-14T14:33:36.157Z,19.98
2022-10-14T14:37:53.438Z,20.42
2022-10-14T14:46:45.627Z,20.33
2022-10-14T14:49:38.833Z,21.45
2022-10-14T14:52:07.868Z,20.55
2022-10-14T14:54:44.720Z,19.58
2022-10-14T14:57:19.749Z,20.88
2022-10-14T15:00:04.502Z,20.85
2022-10-14T15:02:34.761Z,19.52
2022-10-14T15:05:05.708Z,19.05
2022-10-14T15:07:33.723Z,19.83
2022-10-14T15:10:07.144Z,19.60
2022-10-14T15:12:41.892Z,18.45
2022-10-14T15:15:33.013Z,17.52
2022-10-14T15:18:20.946Z,19.40
2022-10-14T15:20:49.507Z,17.60
2022-10-14T15:23:50.565Z,17.13
2022-10-14T15:26:27.943Z,17.70
2022-10-14T15:29:22.671Z,18.02
2022-10-14T15:32:01.895Z,16.25
2022-10-14T15:34:29.159Z,16.90
2022-10-14T15:36:56.330Z,15.25
2022-10-14T15:39:23.455Z,15.35
2022-10-14T15:41:50.317Z,15.68
2022-10-14T15:44:17.283Z,15.70
2022-10-14T15:47:05.266Z,15.10
2022-10-14T15:49:42.556Z,14.38
2022-10-14T15:52:16.424Z,15.35
2022-10-14T15:54:45.805Z,14.20
2022-10-14T15:57:16.703Z,14.50
2022-10-14T16:00:33.735Z,17.55
2022-10-14T16:03:08.650Z,14.25
2022-10-14T16:05:41.111Z,15.57
2022-10-14T16:08:19.075Z,14.93
2022-10-14T16:10:50.817Z,15.70
2022-10-14T16:13:17.753Z,15.40
2022-10-14T16:15:54.775Z,18.38
2022-10-14T16:18:23.488Z,18.52
2022-10-14T16:20:53.518Z,19.02
2022-10-14T16:23:28.174Z,17.52
2022-10-14T16:26:14.582Z,19.48
2022-10-14T16:28:41.462Z,19.77
2022-10-14T16:31:14.095Z,18.00
2022-10-14T16:33:44.791Z,17.58
2022-10-14T16:36:15.052Z,16.33
2022-10-14T16:38:45.781Z,15.77
2022-10-14T16:41:13.897Z,16.83
2022-10-14T16:43:46.620Z,16.15
2022-10-14T16:46:49.210Z,16.13
2022-10-14T16:49:46.764Z,18.52
2022-10-14T16:52:16.010Z,17.63
2022-10-14T16:54:43.460Z,17.83
2022-10-14T16:57:12.683Z,18.38
2022-10-14T16:59:40.087Z,16.92
2022-10-14T17:02:10.961Z,18.45
2022-10-14T17:04:39.250Z,18.33
2022-10-14T17:07:08.935Z,17.02
2022-10-14T17:09:38.959Z,19.27
2022-10-14T17:12:09.457Z,19.98
2022-10-14T17:14:40.687Z,21.50
2022-10-14T17:17:07.482Z,18.52
2022-10-14T17:19:35.045Z,22.70
2022-10-14T17:22:03.234Z,24.48
2022-10-14T17:24:30.424Z,21.35
2022-10-14T17:26:57.458Z,23.55
2022-10-14T17:29:24.334Z,21.83
2022-10-14T17:31:51.539Z,21.85
2022-10-14T17:34:18.373Z,24.75
2022-10-14T17:36:45.561Z,23.88
2022-10-14T17:39:18.718Z,22.13
2022-10-14T17:41:51.394Z,23.33
2022-10-14T17:44:18.884Z,23.38
2022-10-14T17:46:45.964Z,22.20
2022-10-14T17:49:13.208Z,23.05
2022-10-14T17:51:40.022Z,22.38
2022-10-14T17:54:11.476Z,20.98
2022-10-14T17:56:39.876Z,20.48
2022-10-14T17:59:12.448Z,21.35
2022-10-14T18:04:26.596Z,18.63
2022-10-14T18:06:54.232Z,18.15
2022-10-14T18:09:21.307Z,17.35
2022-10-14T18:14:38.688Z,16.33
2022-10-14T18:17:06.362Z,18.58
2022-10-14T18:19:33.738Z,18.10
2022-10-14T18:22:01.903Z,15.95
2022-10-14T18:24:28.877Z,15.50
2022-10-14T18:26:55.797Z,15.60
2022-10-14T18:29:24.562Z,16.00
2022-10-14T18:34:25.319Z,15.27
2022-10-14T18:36:52.210Z,14.55
2022-10-14T18:39:20.427Z,13.07
2022-10-14T18:41:47.761Z,13.40
2022-10-14T18:44:15.355Z,13.70
2022-10-14T18:46:42.292Z,13.88
2022-10-14T18:49:11.706Z,14.20
2022-10-14T18:51:40.617Z,12.20
2022-10-14T18:54:13.881Z,13.55
2022-10-14T18:56:41.646Z,13.30
2022-10-14T18:59:16.010Z,12.93
2022-10-14T19:01:44.162Z,13.80
2022-10-14T19:04:13.593Z,12.60
2022-10-14T19:06:43.604Z,12.05
2022-10-14T19:09:12.646Z,12.82
2022-10-14T19:11:41.262Z,12.65
2022-10-14T19:14:09.909Z,13.02
2022-10-14T19:16:38.684Z,12.52
2022-10-14T19:19:16.733Z,12.43
2022-10-14T19:21:56.155Z,12.02
2022-10-14T19:24:23.032Z,11.77
2022-10-14T19:26:50.164Z,11.90
2022-10-14T19:29:17.415Z,10.43
2022-10-14T19:31:44.667Z,10.68
2022-10-14T19:34:15.318Z,11.35
2022-10-14T19:36:43.957Z,11.27
2022-10-14T19:39:15.390Z,12.95
2022-10-14T19:41:44.299Z,11.98
2022-10-14T19:44:14.147Z,11.63
2022-10-14T19:46:41.456Z,10.40
2022-10-14T19:49:12.447Z,11.27
2022-10-14T19:51:39.776Z,11.32
2022-10-14T19:54:06.703Z,12.00
2022-10-14T19:56:33.639Z,12.93
2022-10-14T19:59:01.698Z,12.15
2022-10-14T20:01:31.046Z,10.57
2022-10-14T20:04:01.365Z,10.27
2022-10-14T20:06:37.655Z,10.82
2022-10-14T20:09:05.165Z,11.60
2022-10-14T20:11:32.341Z,9.95
2022-10-14T20:13:59.666Z,10.18
2022-10-14T20:16:27.193Z,9.70
2022-10-14T20:18:54.958Z,10.90
2022-10-14T20:21:22.048Z,9.57
2022-10-14T20:23:48.880Z,11.98
2022-10-14T20:26:21.436Z,12.38
2022-10-14T20:28:49.869Z,10.95
2022-10-14T20:31:21.752Z,12.55
2022-10-14T20:33:49.117Z,11.00
2022-10-14T20:36:20.265Z,11.73
2022-10-14T20:38:48.110Z,11.52
2022-10-14T20:41:22.531Z,12.07
2022-10-14T20:43:49.685Z,12.13
2022-10-14T20:46:17.751Z,12.45
2022-10-14T20:48:44.714Z,11.80
2022-10-14T20:51:16.457Z,10.82
2022-10-14T20:53:43.609Z,10.10
2022-10-14T20:56:12.988Z,10.85
2022-10-14T20:58:40.339Z,10.23
2022-10-14T21:01:16.890Z,10.00
2022-10-14T21:03:46.537Z,9.35
2022-10-14T21:06:19.367Z,11.60
2022-10-14T21:08:49.498Z,11.50
2022-10-14T21:11:20.580Z,9.57
2022-10-14T21:13:50.998Z,10.07
2022-10-14T21:16:34.865Z,10.18
2022-10-14T21:19:06.538Z,10.32
2022-10-14T21:21:39.001Z,12.32
2022-10-14T21:24:06.938Z,12.68
2022-10-14T21:26:34.074Z,11.55
2022-10-14T21:29:04.412Z,10.52
2022-10-14T21:31:32.042Z,11.02
2022-10-14T21:34:05.335Z,11.25
2022-10-14T21:36:34.573Z,11.60
2022-10-14T21:39:06.981Z,10.38
2022-10-14T21:41:35.105Z,10.88
2022-10-14T21:44:02.141Z,10.73
2022-10-14T21:46:29.047Z,9.50
2022-10-14T21:48:57.749Z,10.15
2022-10-14T21:51:28.188Z,10.48
2022-10-14T21:53:55.931Z,9.93
2022-10-14T21:56:23.933Z,10.55
2022-10-14T21:58:50.979Z,10.35
2022-10-14T22:01:26.110Z,11.18
2022-10-14T22:04:03.862Z,10.93
2022-10-14T22:06:33.875Z,10.48
2022-10-14T22:09:05.466Z,9.10
2022-10-14T22:11:39.743Z,9.20
2022-10-14T22:14:12.695Z,9.80
2022-10-14T22:16:40.145Z,9.40
2022-10-14T22:19:08.137Z,10.18
2022-10-14T22:21:37.620Z,8.75
2022-10-14T22:26:35.072Z,8.75
2022-10-14T22:29:11.563Z,8.80
2022-10-14T22:31:38.601Z,9.32
2022-10-14T22:34:07.821Z,8.65
2022-10-14T22:36:35.918Z,8.63
2022-10-14T22:39:08.377Z,8.27
2022-10-14T22:41:36.107Z,8.98
2022-10-14T22:44:05.300Z,7.30
2022-10-14T22:46:35.688Z,7.93
2022-10-14T22:49:02.743Z,7.72
2022-10-14T22:51:33.753Z,7.60
2022-10-14T22:54:00.818Z,7.65
2022-10-14T22:56:30.733Z,6.93
2022-10-14T22:59:10.864Z,7.30
2022-10-14T23:01:39.714Z,8.90
2022-10-14T23:04:06.908Z,8.07
2022-10-14T23:06:33.924Z,7.63
2022-10-14T23:09:01.369Z,7.63
2022-10-14T23:11:30.592Z,7.82
2022-10-14T23:14:00.305Z,7.95
2022-10-14T23:16:29.849Z,7.75
2022-10-14T23:18:58.977Z,8.15
2022-10-14T23:21:32.824Z,7.13
2022-10-14T23:24:04.626Z,7.10
2022-10-14T23:26:34.477Z,7.85
2022-10-14T23:29:11.847Z,8.73
2022-10-14T23:31:40.407Z,8.45
2022-10-14T23:34:13.107Z,7.72
2022-10-14T23:36:40.360Z,7.55
2022-10-14T23:39:07.347Z,7.97
2022-10-14T23:41:34.319Z,7.50
2022-10-14T23:44:01.240Z,7.57
2022-10-14T23:46:28.090Z,6.82
2022-10-14T23:49:06.587Z,8.93
2022-10-14T23:51:35.632Z,7.43
2022-10-14T23:54:03.151Z,7.88
2022-10-14T23:56:30.001Z,7.55
2022-10-14T23:58:56.993Z,8.50
